Time;durP1;ratioP1;P1;durP2;ratioP2;P2;SDS_P1;SDS_P2;PMS_P1;PMS_P2;Temp;Humidity;BMP_temperature;BMP_pressure;BME280_temperature;BME280_humidity;BME280_pressure;Samples;Min_cycle;Max_cycle;Signal;HPM_P1;HPM_P2
2022/10/31 00:08:59;;;;;;;20.1;26.9;;;;;;;11.7;91.3;99160;;;;
2022/10/31 00:18:59;;;;;;;20.1;26.9;;;;;;;11.7;90.9;99170;;;;
2022/10/31 00:29:59;;;;;;;20.1;26.9;;;;;;;11.6;90.6;99170;;;;
2022/10/31 00:40:59;;;;;;;18.7;24.2;;;;;;;11.7;90.9;99170;;;;
2022/10/31 00:50:59;;;;;;;18.7;24.2;;;;;;;11.6;90.5;99180;;;;
2022/10/31 01:02:11;;;;;;;18.7;24.2;;;;;;;11.4;89.9;99180;;;;
2022/10/31 01:11:59;;;;;;;19.5;24.5;;;;;;;11.3;90;99180;;;;
2022/10/31 01:22:59;;;;;;;19.5;24.5;;;;;;;11.3;90.4;99170;;;;
2022/10/31 01:32:59;;;;;;;19.5;25.7;;;;;;;11.3;90.5;99170;;;;
2022/10/31 01:42:59;;;;;;;19.5;25.7;;;;;;;11.3;90.3;99160;;;;
2022/10/31 01:53:59;;;;;;;19.5;25.7;;;;;;;11.2;90;99160;;;;
2022/10/31 02:03:59;;;;;;;20.3;29.6;;;;;;;11.1;90.1;99170;;;;
2022/10/31 02:14:59;;;;;;;20.3;29.6;;;;;;;11;90.8;99160;;;;
2022/10/31 02:25:00;;;;;;;20.3;29.6;;;;;;;11.1;90.9;99160;;;;
2022/10/31 02:34:59;;;;;;;21.7;30.9;;;;;;;11.1;91;99170;;;;
2022/10/31 02:44:59;;;;;;;21.7;30.9;;;;;;;11.1;90.9;99180;;;;
2022/10/31 02:54:59;;;;;;;21.7;30.9;;;;;;;11.2;90.8;99190;;;;
2022/10/31 03:04:59;;;;;;;20.7;28.1;;;;;;;11.2;90.5;99190;;;;
2022/10/31 03:16:00;;;;;;;20.7;28.1;;;;;;;11.1;90.3;99200;;;;
2022/10/31 03:26:59;;;;;;;20.7;28.1;;;;;;;11.2;90.5;99200;;;;
2022/10/31 03:37:59;;;;;;;23;27.7;;;;;;;11.3;90.7;99200;;;;
2022/10/31 03:48:59;;;;;;;23;27.7;;;;;;;11.4;90.6;99210;;;;
2022/10/31 03:59:59;;;;;;;23;27.7;;;;;;;11.3;90.4;99210;;;;
2022/10/31 04:10:59;;;;;;;21.5;27.9;;;;;;;11.2;89.9;99200;;;;
2022/10/31 04:21:59;;;;;;;21.5;27.9;;;;;;;11;89.7;99210;;;;
2022/10/31 04:32:59;;;;;;;18;21.5;;;;;;;10.8;89.3;99210;;;;
2022/10/31 04:42:59;;;;;;;18;21.5;;;;;;;10.6;89.2;99210;;;;
2022/10/31 04:53:59;;;;;;;18;21.5;;;;;;;10.5;89.2;99210;;;;
2022/10/31 05:04:00;;;;;;;16.8;22;;;;;;;10.3;89.4;99210;;;;
2022/10/31 05:14:59;;;;;;;16.8;22;;;;;;;10.3;89.7;99210;;;;
2022/10/31 05:25:59;;;;;;;16.8;22;;;;;;;10.2;89.6;99220;;;;
2022/10/31 05:36:59;;;;;;;15.7;22.3;;;;;;;10;89.2;99230;;;;
2022/10/31 05:47:00;;;;;;;15.7;22.3;;;;;;;9.9;89.1;99240;;;;
2022/10/31 05:57:00;;;;;;;15.7;22.3;;;;;;;9.9;89.4;99250;;;;
2022/10/31 06:08:00;;;;;;;14.5;19.4;;;;;;;9.9;89.6;99260;;;;
2022/10/31 06:18:00;;;;;;;14.5;19.4;;;;;;;10;89.9;99270;;;;
2022/10/31 06:29:00;;;;;;;14.5;19.4;;;;;;;10.3;91;99280;;;;
2022/10/31 06:39:59;;;;;;;15.3;18.4;;;;;;;10.6;91.3;99290;;;;
2022/10/31 06:50:00;;;;;;;15.3;18.4;;;;;;;10.9;91.3;99290;;;;
2022/10/31 06:59:59;;;;;;;15.3;18.4;;;;;;;11.2;91.1;99300;;;;
2022/10/31 07:10:00;;;;;;;15.3;19.5;;;;;;;11.5;90.6;99300;;;;
2022/10/31 07:21:00;;;;;;;15.3;19.5;;;;;;;11.8;89.5;99300;;;;
2022/10/31 07:32:00;;;;;;;15.3;19.5;;;;;;;12.1;88.7;99310;;;;
2022/10/31 07:43:00;;;;;;;16;20.4;;;;;;;12.3;86.9;99310;;;;
2022/10/31 07:53:00;;;;;;;16;20.4;;;;;;;12.5;85.9;99310;;;;
2022/10/31 08:03:00;;;;;;;16.1;21.6;;;;;;;12.8;85.9;99310;;;;
2022/10/31 08:13:59;;;;;;;16.1;21.6;;;;;;;13.1;84.9;99320;;;;
2022/10/31 08:25:00;;;;;;;16.1;21.6;;;;;;;13.5;84.1;99310;;;;
2022/10/31 08:35:00;;;;;;;14.5;20.3;;;;;;;13.8;83.4;99310;;;;
2022/10/31 08:45:25;;;;;;;14.5;20.3;;;;;;;14.2;82.1;99320;;;;
2022/10/31 08:55:25;;;;;;;14.5;20.3;;;;;;;14.5;80.9;99310;;;;
2022/10/31 09:05:25;;;;;;;15.7;20.9;;;;;;;14.8;80;99300;;;;
2022/10/31 09:16:25;;;;;;;15.7;20.9;;;;;;;15.3;78.8;99300;;;;
2022/10/31 09:27:25;;;;;;;15.7;20.9;;;;;;;15.8;78;99300;;;;
2022/10/31 09:37:25;;;;;;;15.2;18.8;;;;;;;16.3;75.2;99300;;;;
2022/10/31 09:47:25;;;;;;;15.2;18.8;;;;;;;16.6;72;99300;;;;
2022/10/31 09:58:25;;;;;;;15.2;18.8;;;;;;;17.1;71.5;99310;;;;
2022/10/31 10:08:25;;;;;;;10.3;17.1;;;;;;;17.3;68.6;99310;;;;
2022/10/31 10:18:25;;;;;;;10.3;17.1;;;;;;;17.7;68.8;99300;;;;
2022/10/31 10:29:25;;;;;;;10.3;17.1;;;;;;;18.1;68.6;99300;;;;
2022/10/31 10:40:25;;;;;;;11.4;19;;;;;;;18.5;68;99300;;;;
2022/10/31 10:51:25;;;;;;;11.4;19;;;;;;;18.8;66;99290;;;;
2022/10/31 11:01:25;;;;;;;11.4;19;;;;;;;19;65.2;99280;;;;
2022/10/31 11:12:25;;;;;;;11.1;17.2;;;;;;;19.3;64.5;99280;;;;
2022/10/31 11:23:25;;;;;;;11.1;17.2;;;;;;;19.4;63.9;99270;;;;
2022/10/31 11:34:25;;;;;;;10.7;14.6;;;;;;;19.7;62.7;99260;;;;
2022/10/31 11:45:25;;;;;;;10.7;14.6;;;;;;;19.9;63;99260;;;;
2022/10/31 11:56:25;;;;;;;10.7;14.6;;;;;;;20;62.8;99250;;;;
2022/10/31 12:07:25;;;;;;;10.8;16.7;;;;;;;20.2;62.2;99240;;;;
2022/10/31 12:18:25;;;;;;;10.8;16.7;;;;;;;20.4;62.2;99240;;;;
2022/10/31 12:28:25;;;;;;;10.8;16.7;;;;;;;20.5;61.7;99230;;;;
2022/10/31 12:39:25;;;;;;;10.2;19.5;;;;;;;20.7;61.4;99220;;;;
2022/10/31 12:49:27;;;;;;;10.2;19.5;;;;;;;20.7;58.7;99220;;;;
2022/10/31 13:00:25;;;;;;;10.2;19.5;;;;;;;20.7;59.2;99200;;;;
2022/10/31 13:10:25;;;;;;;9.8;16.7;;;;;;;20.8;60.3;99200;;;;
2022/10/31 13:21:25;;;;;;;9.8;16.7;;;;;;;20.8;60.3;99200;;;;
2022/10/31 13:31:25;;;;;;;9.8;16.7;;;;;;;20.8;59.2;99200;;;;
2022/10/31 13:42:25;;;;;;;8.6;17.3;;;;;;;20.7;59.5;99200;;;;
2022/10/31 13:53:25;;;;;;;8.6;17.3;;;;;;;20.6;59.8;99190;;;;
2022/10/31 14:03:25;;;;;;;7.8;17.2;;;;;;;20.4;61.1;99190;;;;
2022/10/31 14:14:25;;;;;;;7.8;17.2;;;;;;;20.1;61.5;99190;;;;
2022/10/31 14:25:25;;;;;;;7.8;17.2;;;;;;;19.6;63.1;99180;;;;
2022/10/31 14:35:25;;;;;;;9.1;17.1;;;;;;;19.1;64;99180;;;;
2022/10/31 14:46:25;;;;;;;9.1;17.1;;;;;;;18.5;65.7;99180;;;;
2022/10/31 14:56:25;;;;;;;9.1;17.1;;;;;;;18;66.1;99180;;;;
2022/10/31 15:07:26;;;;;;;10.3;18.3;;;;;;;17.5;67.3;99180;;;;
2022/10/31 15:17:25;;;;;;;10.3;18.3;;;;;;;16.9;69.1;99180;;;;
2022/10/31 15:28:25;;;;;;;10.3;18.3;;;;;;;16.4;70.4;99180;;;;
2022/10/31 15:38:25;;;;;;;10.8;19.5;;;;;;;16;71.5;99180;;;;
2022/10/31 15:48:26;;;;;;;10.8;19.5;;;;;;;15.7;72.8;99190;;;;
2022/10/31 15:58:25;;;;;;;10.8;19.5;;;;;;;15.3;73.5;99190;;;;
2022/10/31 16:09:25;;;;;;;13.2;20.8;;;;;;;15;75.1;99200;;;;
2022/10/31 16:20:26;;;;;;;13.2;20.8;;;;;;;14.7;76.4;99210;;;;
2022/10/31 16:31:25;;;;;;;13.2;20.8;;;;;;;14.6;76.8;99210;;;;
2022/10/31 16:41:25;;;;;;;21;31;;;;;;;14.5;77.3;99210;;;;
2022/10/31 16:52:25;;;;;;;21;31;;;;;;;14.3;77.5;99210;;;;
2022/10/31 17:03:25;;;;;;;23.7;34.3;;;;;;;14;77.8;99220;;;;
2022/10/31 17:13:25;;;;;;;23.7;34.3;;;;;;;13.8;78.1;99220;;;;
2022/10/31 17:24:25;;;;;;;23.7;34.3;;;;;;;13.6;79.7;99210;;;;
2022/10/31 17:35:25;;;;;;;18.9;26.8;;;;;;;13.5;80.5;99220;;;;
2022/10/31 17:46:26;;;;;;;18.9;26.8;;;;;;;13.4;80.5;99220;;;;
2022/10/31 17:57:25;;;;;;;18.9;26.8;;;;;;;13.3;80.4;99220;;;;
2022/10/31 18:08:25;;;;;;;19;28.5;;;;;;;12.9;80.4;99210;;;;
2022/10/31 18:19:25;;;;;;;19;28.5;;;;;;;12.7;81;99210;;;;
2022/10/31 18:29:25;;;;;;;19;28.5;;;;;;;12.4;80.8;99210;;;;
2022/10/31 18:40:25;;;;;;;20.5;27.9;;;;;;;12.1;83.1;99200;;;;
2022/10/31 18:50:25;;;;;;;20.5;27.9;;;;;;;12;84;99200;;;;
2022/10/31 19:00:25;;;;;;;20.5;27.9;;;;;;;11.7;83.2;99210;;;;
2022/10/31 19:11:25;;;;;;;22.7;29.9;;;;;;;11.5;83.6;99200;;;;
2022/10/31 19:22:26;;;;;;;22.7;29.9;;;;;;;11.3;83.9;99190;;;;
2022/10/31 19:33:27;;;;;;;25;31.5;;;;;;;11.1;84.4;99190;;;;
2022/10/31 19:43:25;;;;;;;25;31.5;;;;;;;11;84.5;99190;;;;
2022/10/31 19:54:25;;;;;;;25;31.5;;;;;;;10.8;84.8;99190;;;;
2022/10/31 20:04:26;;;;;;;23.6;33.9;;;;;;;10.7;85.4;99190;;;;
2022/10/31 20:15:25;;;;;;;23.6;33.9;;;;;;;10.6;86.4;99170;;;;
2022/10/31 20:26:25;;;;;;;23.6;33.9;;;;;;;10.5;86.8;99180;;;;
2022/10/31 20:37:25;;;;;;;23;32.5;;;;;;;10.4;86.8;99180;;;;
2022/10/31 20:47:26;;;;;;;23;32.5;;;;;;;10.3;86.8;99180;;;;
2022/10/31 20:58:25;;;;;;;23;32.5;;;;;;;10.1;86.8;99170;;;;
2022/10/31 21:09:25;;;;;;;20;28;;;;;;;9.9;86.5;99170;;;;
2022/10/31 21:20:25;;;;;;;20;28;;;;;;;9.8;86.7;99170;;;;
2022/10/31 21:30:25;;;;;;;20;28;;;;;;;9.7;87.2;99160;;;;
2022/10/31 21:40:25;;;;;;;20.8;29.2;;;;;;;9.6;87.6;99150;;;;
2022/10/31 21:51:25;;;;;;;20.8;29.2;;;;;;;9.5;87.9;99140;;;;
2022/10/31 22:01:25;;;;;;;20.8;29.2;;;;;;;9.5;88.1;99130;;;;
2022/10/31 22:12:25;;;;;;;23.6;30.5;;;;;;;9.4;88.1;99130;;;;
2022/10/31 22:23:25;;;;;;;23.6;30.5;;;;;;;9.2;88;99120;;;;
2022/10/31 22:33:25;;;;;;;24.1;33.2;;;;;;;9.1;88.1;99110;;;;
2022/10/31 22:44:25;;;;;;;24.1;33.2;;;;;;;9;88.5;99100;;;;
2022/10/31 22:54:25;;;;;;;24.1;33.2;;;;;;;9;88.5;99100;;;;
2022/10/31 23:04:25;;;;;;;21.4;29.3;;;;;;;8.9;88.5;99100;;;;
2022/10/31 23:14:25;;;;;;;21.4;29.3;;;;;;;8.8;88.4;99090;;;;
2022/10/31 23:35:25;;;;;;;23.7;32.6;;;;;;;8.6;88.8;99060;;;;
2022/10/31 23:45:27;;;;;;;23.7;32.6;;;;;;;8.5;89.3;99050;;;;
2022/10/31 23:56:25;;;;;;;23.7;32.6;;;;;;;8.5;89.4;99040;;;;
